Hill West, Vermont
Current Conditions -  °F | °C
As of 9:35 PM on Friday 24 Oct 2014 (Local Time) from KFSO Reporting Station
Overcast Overcast  
Wind Chill: 40°   Ceiling: 11000
Heat Index: 40°   Visibility: 10mi
Dew Point: 39°   Wind: 0mph
Humidity: 95%   Direction: NA
Pressure: 29.83"   Gusts: NA
Location:  44.8764°N, 72.758°W
Report Text: KFSO 250135Z AUTO 00000KT 10SM OVC110 05/04 A2983 RMK AO2 T00450037
Loading
Personal Weather Stations






























Interactive Weather Map
Tropical Storm Tracking
New forecast layout! Learn more

10-Day Weather Forecast

Advertisements
Track Severe Weather on mobile